Time;durP1;ratioP1;P1;durP2;ratioP2;P2;SDS_P1;SDS_P2;PMS_P1;PMS_P2;Temp;Humidity;BMP_temperature;BMP_pressure;BME280_temperature;BME280_humidity;BME280_pressure;Samples;Min_cycle;Max_cycle;Signal;HPM_P1;HPM_P2
2022/12/09 00:02:48;;;;;;;14.75;8.85;;;22.90;41.60;;;;;;6092884;28;80608;-70
2022/12/09 00:05:49;;;;;;;15.52;8.93;;;22.80;41.40;;;;;;6093722;28;81942;-69
2022/12/09 00:08:49;;;;;;;13.25;8.88;;;22.80;41.40;;;;;;6090162;28;80221;-67
2022/12/09 00:11:51;;;;;;;14.13;9.48;;;22.80;41.40;;;;;;6102197;28;80912;-67
2022/12/09 00:14:52;;;;;;;14.15;9.48;;;22.80;41.30;;;;;;6072373;28;81396;-66
2022/12/09 00:17:52;;;;;;;13.38;8.68;;;22.90;41.10;;;;;;6098889;28;83735;-66
2022/12/09 00:20:53;;;;;;;13.82;8.70;;;22.80;41.00;;;;;;6099624;28;86074;-66
2022/12/09 00:23:53;;;;;;;14.82;9.50;;;22.90;40.90;;;;;;6079895;28;80317;-62
2022/12/09 00:26:54;;;;;;;14.30;8.93;;;22.90;40.90;;;;;;6078839;28;81462;-63
2022/12/09 00:29:54;;;;;;;13.50;9.32;;;22.90;41.00;;;;;;6093064;28;80888;-63
2022/12/09 00:32:55;;;;;;;15.23;9.82;;;22.90;40.90;;;;;;6086865;28;81017;-63
2022/12/09 00:35:55;;;;;;;14.10;9.32;;;22.90;40.90;;;;;;6080516;28;82226;-63
2022/12/09 00:38:56;;;;;;;15.25;9.20;;;22.90;41.00;;;;;;6096939;28;81381;-64
2022/12/09 00:41:56;;;;;;;15.20;9.50;;;22.90;40.90;;;;;;6081640;28;80803;-62
2022/12/09 00:44:57;;;;;;;14.30;9.15;;;22.90;40.90;;;;;;6092071;28;82956;-65
2022/12/09 00:47:58;;;;;;;15.43;8.68;;;22.80;40.80;;;;;;6086916;28;83357;-65
2022/12/09 00:50:59;;;;;;;14.30;8.98;;;22.80;40.90;;;;;;6094399;28;87709;-64
2022/12/09 00:54:00;;;;;;;13.60;8.68;;;22.80;40.90;;;;;;6100378;28;80605;-64
2022/12/09 00:57:00;;;;;;;13.13;8.48;;;22.80;40.80;;;;;;6078005;28;82393;-64
2022/12/09 01:00:01;;;;;;;12.98;8.40;;;22.80;40.80;;;;;;6069539;28;80775;-68
2022/12/09 01:03:02;;;;;;;13.20;8.65;;;22.80;40.60;;;;;;6084208;28;80605;-69
2022/12/09 01:06:02;;;;;;;12.57;8.32;;;22.80;40.70;;;;;;6092272;28;82081;-68
2022/12/09 01:09:02;;;;;;;12.57;8.45;;;22.80;40.60;;;;;;6107777;28;83590;-69
2022/12/09 01:12:03;;;;;;;12.02;7.97;;;22.80;40.50;;;;;;6078175;28;82338;-69
2022/12/09 01:15:04;;;;;;;12.65;7.55;;;22.80;40.50;;;;;;6089725;28;80603;-69
2022/12/09 01:18:04;;;;;;;11.57;7.80;;;22.80;40.50;;;;;;6079767;28;83163;-62
2022/12/09 01:21:05;;;;;;;11.07;7.13;;;22.80;40.50;;;;;;6091165;28;81101;-63
2022/12/09 01:24:06;;;;;;;11.85;8.13;;;22.80;40.50;;;;;;6099916;28;83212;-64
2022/12/09 01:27:06;;;;;;;12.63;8.15;;;22.80;40.50;;;;;;6097241;28;81744;-63
2022/12/09 01:30:07;;;;;;;12.13;7.93;;;22.80;40.60;;;;;;6104179;28;83234;-63
2022/12/09 01:33:07;;;;;;;14.18;9.15;;;22.80;40.50;;;;;;6100577;28;81202;-62
2022/12/09 01:36:08;;;;;;;15.00;9.57;;;22.80;40.40;;;;;;6087757;28;81165;-63
2022/12/09 01:39:08;;;;;;;16.55;9.75;;;22.80;40.40;;;;;;6087500;28;80985;-63
2022/12/09 01:42:09;;;;;;;15.20;10.10;;;22.70;40.20;;;;;;6080975;28;80870;-63
2022/12/09 01:45:09;;;;;;;14.88;9.32;;;22.70;40.30;;;;;;6088438;28;84171;-63
2022/12/09 01:48:10;;;;;;;15.73;9.93;;;22.70;40.30;;;;;;6100394;28;84535;-62
2022/12/09 01:51:10;;;;;;;14.88;9.85;;;22.70;40.30;;;;;;6099888;28;80730;-63
2022/12/09 01:54:11;;;;;;;19.40;11.90;;;22.70;40.40;;;;;;6101444;28;80776;-63
2022/12/09 01:57:11;;;;;;;18.40;11.18;;;22.70;40.50;;;;;;6087563;28;85309;-64
2022/12/09 02:00:12;;;;;;;17.10;10.98;;;22.70;40.50;;;;;;6108012;28;86887;-64
2022/12/09 02:03:18;;;;;;;15.63;10.20;;;22.70;40.40;;;;;;6102324;28;83518;-64
2022/12/09 02:06:20;;;;;;;17.42;11.32;;;22.70;40.50;;;;;;6097091;28;87913;-64
2022/12/09 02:09:21;;;;;;;17.45;11.13;;;22.70;40.50;;;;;;6094712;28;87220;-65
2022/12/09 02:12:24;;;;;;;16.50;10.48;;;22.70;40.50;;;;;;6110247;28;90288;-63
2022/12/09 02:15:25;;;;;;;17.50;10.98;;;22.70;40.50;;;;;;6112094;28;85527;-64
2022/12/09 02:18:26;;;;;;;17.65;11.10;;;22.70;40.50;;;;;;6106649;28;84801;-63
2022/12/09 02:21:27;;;;;;;18.67;10.85;;;22.70;40.40;;;;;;6094400;28;86558;-62
2022/12/09 02:24:27;;;;;;;17.45;11.18;;;22.70;40.40;;;;;;6092656;28;84055;-63
2022/12/09 02:27:28;;;;;;;18.50;11.20;;;22.70;40.50;;;;;;6086505;28;85968;-63
2022/12/09 02:30:29;;;;;;;17.95;11.05;;;22.70;40.50;;;;;;6090139;28;85828;-64
2022/12/09 02:33:30;;;;;;;16.95;10.73;;;22.70;40.40;;;;;;6098890;28;84559;-63
2022/12/09 02:36:31;;;;;;;15.57;10.35;;;22.70;40.30;;;;;;6089738;28;85168;-62
2022/12/09 02:39:32;;;;;;;17.02;10.93;;;22.70;40.30;;;;;;6095017;28;86246;-62
2022/12/09 02:42:33;;;;;;;16.80;10.65;;;22.70;40.40;;;;;;6093061;28;86121;-64
2022/12/09 02:45:35;;;;;;;17.60;10.43;;;22.70;40.40;;;;;;6088118;28;90037;-63
2022/12/09 02:48:37;;;;;;;15.02;9.70;;;22.70;40.50;;;;;;6090309;28;82923;-63
2022/12/09 02:51:40;;;;;;;15.88;10.30;;;22.70;41.00;;;;;;6078013;28;87188;-64
2022/12/09 02:54:42;;;;;;;16.58;10.38;;;22.70;40.30;;;;;;6103116;28;85714;-66
2022/12/09 02:57:43;;;;;;;16.02;9.90;;;22.70;40.40;;;;;;6094113;28;86223;-66
2022/12/09 03:00:45;;;;;;;18.98;9.70;;;22.70;40.30;;;;;;6110259;28;84510;-65
2022/12/09 03:03:46;;;;;;;15.98;10.15;;;22.60;40.10;;;;;;6109798;28;80950;-66
2022/12/09 03:06:46;;;;;;;16.45;10.40;;;22.60;40.40;;;;;;6097644;28;89999;-67
2022/12/09 03:09:47;;;;;;;15.82;9.50;;;22.70;40.30;;;;;;6106047;28;83888;-67
2022/12/09 03:12:48;;;;;;;14.18;9.68;;;22.60;40.20;;;;;;6086707;28;85195;-66
2022/12/09 03:15:48;;;;;;;16.90;10.13;;;22.60;40.30;;;;;;6097675;28;83423;-66
2022/12/09 03:18:49;;;;;;;12.98;9.25;;;22.70;40.30;;;;;;6086691;28;83581;-66
2022/12/09 03:21:49;;;;;;;15.90;9.55;;;22.70;40.20;;;;;;6077735;28;82373;-65
2022/12/09 03:24:50;;;;;;;15.18;10.05;;;22.70;40.10;;;;;;6086463;28;80328;-65
2022/12/09 03:27:50;;;;;;;15.07;9.35;;;22.60;40.10;;;;;;6090171;28;83238;-64
2022/12/09 03:30:52;;;;;;;13.65;8.93;;;22.60;40.10;;;;;;6111617;28;83074;-64
2022/12/09 03:33:52;;;;;;;14.73;9.25;;;22.60;40.00;;;;;;6106498;28;82360;-64
2022/12/09 03:36:53;;;;;;;14.95;9.60;;;22.60;40.00;;;;;;6100921;28;81272;-65
2022/12/09 03:39:53;;;;;;;13.82;9.13;;;22.60;39.90;;;;;;6089841;28;80577;-66
2022/12/09 03:42:54;;;;;;;12.98;9.00;;;22.60;39.90;;;;;;6089262;28;80861;-60
2022/12/09 03:45:54;;;;;;;16.05;9.13;;;22.60;40.00;;;;;;6102486;28;80467;-66
2022/12/09 03:48:55;;;;;;;15.02;9.05;;;22.60;39.90;;;;;;6084488;28;80812;-66
2022/12/09 03:51:55;;;;;;;12.10;7.57;;;22.60;40.10;;;;;;6081135;28;80850;-65
2022/12/09 03:54:56;;;;;;;17.85;9.90;;;22.70;40.10;;;;;;6090121;28;80797;-64
2022/12/09 03:57:57;;;;;;;15.38;9.50;;;22.70;40.00;;;;;;6079734;28;81341;-64
2022/12/09 04:00:57;;;;;;;14.90;8.93;;;22.70;40.00;;;;;;6082433;28;80952;-65
2022/12/09 04:03:58;;;;;;;14.98;8.90;;;22.70;39.80;;;;;;6100525;28;80816;-68
2022/12/09 04:06:59;;;;;;;16.02;9.50;;;22.70;39.90;;;;;;6110704;28;84906;-67
2022/12/09 04:09:59;;;;;;;13.25;8.90;;;22.70;39.90;;;;;;6092352;28;80411;-66
2022/12/09 04:13:00;;;;;;;12.25;8.13;;;22.70;39.90;;;;;;6102562;28;80431;-68
2022/12/09 04:16:00;;;;;;;14.70;9.50;;;22.70;40.10;;;;;;6103453;28;80432;-69
2022/12/09 04:19:01;;;;;;;13.98;9.25;;;22.70;40.00;;;;;;6080324;28;81752;-67
2022/12/09 04:22:01;;;;;;;14.48;8.90;;;22.70;39.80;;;;;;6083713;28;81276;-64
2022/12/09 04:25:01;;;;;;;13.82;9.13;;;22.70;39.70;;;;;;6085176;28;80241;-65
2022/12/09 04:28:02;;;;;;;13.70;8.45;;;22.80;39.70;;;;;;6094326;28;81969;-65
2022/12/09 04:31:02;;;;;;;12.55;8.60;;;22.80;39.70;;;;;;6098145;28;82393;-65
2022/12/09 04:34:03;;;;;;;14.02;8.77;;;22.90;39.50;;;;;;6094621;28;80806;-65
2022/12/09 04:37:03;;;;;;;12.93;8.23;;;22.90;39.70;;;;;;6081234;28;84119;-64
2022/12/09 04:40:04;;;;;;;13.93;9.43;;;23.00;39.70;;;;;;6097215;28;80972;-64
2022/12/09 04:43:05;;;;;;;13.90;8.20;;;23.00;39.80;;;;;;6092396;28;82462;-66
2022/12/09 04:46:05;;;;;;;13.05;8.30;;;23.10;39.80;;;;;;6086041;28;80906;-67
2022/12/09 04:49:06;;;;;;;14.20;9.00;;;23.10;39.60;;;;;;6081347;28;82145;-68
2022/12/09 04:52:06;;;;;;;13.98;8.98;;;23.10;39.60;;;;;;6084816;28;80884;-67
2022/12/09 04:55:07;;;;;;;15.52;10.10;;;23.10;39.60;;;;;;6078310;28;80993;-66
2022/12/09 04:58:07;;;;;;;15.52;9.13;;;23.20;39.50;;;;;;6081417;28;83464;-63
2022/12/09 05:01:08;;;;;;;14.68;9.02;;;23.20;39.30;;;;;;6077510;28;81946;-62
2022/12/09 05:04:09;;;;;;;12.10;8.40;;;23.20;39.20;;;;;;6075211;28;80424;-63
2022/12/09 05:07:09;;;;;;;15.38;9.20;;;23.20;39.20;;;;;;6092128;28;80913;-63
2022/12/09 05:10:10;;;;;;;11.70;8.35;;;23.20;39.30;;;;;;6096285;28;85089;-67
2022/12/09 05:13:10;;;;;;;13.27;8.38;;;23.30;39.30;;;;;;6102796;28;80625;-62
2022/12/09 05:16:11;;;;;;;15.32;9.55;;;23.30;39.20;;;;;;6089185;28;82814;-63
2022/12/09 05:19:11;;;;;;;15.45;8.20;;;23.30;39.10;;;;;;6092520;28;80496;-61
2022/12/09 05:22:12;;;;;;;13.77;9.25;;;23.30;39.20;;;;;;6079675;28;81347;-66
2022/12/09 05:25:12;;;;;;;12.18;8.05;;;23.30;39.10;;;;;;6088032;28;81480;-64
2022/12/09 05:28:13;;;;;;;14.00;8.60;;;23.40;39.10;;;;;;6079591;28;80549;-65
2022/12/09 05:31:16;;;;;;;13.93;9.07;;;23.30;39.10;;;;;;6077043;28;80516;-57
2022/12/09 05:34:17;;;;;;;17.98;9.38;;;23.30;39.10;;;;;;6084008;28;80578;-65
2022/12/09 05:37:17;;;;;;;14.52;8.52;;;23.40;39.10;;;;;;6103767;28;84231;-61
2022/12/09 05:40:18;;;;;;;15.85;8.88;;;23.40;39.30;;;;;;6103708;28;81637;-67
2022/12/09 05:43:18;;;;;;;15.50;9.82;;;23.40;39.70;;;;;;6101131;28;81014;-61
2022/12/09 05:46:19;;;;;;;14.57;9.02;;;23.40;39.80;;;;;;6099710;28;80095;-62
2022/12/09 05:49:19;;;;;;;16.30;9.02;;;23.40;39.80;;;;;;6107012;28;80589;-61
2022/12/09 05:52:20;;;;;;;14.80;8.75;;;23.40;39.70;;;;;;6100689;28;84324;-61
2022/12/09 05:55:20;;;;;;;17.27;9.40;;;23.40;39.30;;;;;;6096502;28;80431;-61
2022/12/09 05:58:21;;;;;;;15.13;10.02;;;23.30;39.20;;;;;;6100938;28;80388;-63
2022/12/09 06:01:21;;;;;;;16.60;9.48;;;23.30;39.10;;;;;;6084081;28;83381;-65
2022/12/09 06:04:22;;;;;;;15.02;9.57;;;23.30;38.80;;;;;;6081900;28;82011;-68
2022/12/09 06:07:22;;;;;;;16.02;9.63;;;23.30;39.40;;;;;;6078186;28;83413;-67
2022/12/09 06:10:23;;;;;;;17.90;9.77;;;23.30;39.20;;;;;;6099201;28;80729;-67
2022/12/09 06:13:23;;;;;;;15.82;9.85;;;23.30;39.00;;;;;;6102737;28;81338;-61
2022/12/09 06:16:24;;;;;;;17.38;10.50;;;23.30;39.10;;;;;;6103028;28;80862;-62
2022/12/09 06:19:24;;;;;;;17.45;10.82;;;23.30;39.20;;;;;;6095305;28;84156;-62
2022/12/09 06:22:25;;;;;;;19.98;11.00;;;23.20;39.30;;;;;;6087175;28;83387;-61
2022/12/09 06:25:25;;;;;;;14.85;10.02;;;23.20;39.90;;;;;;6087188;28;82966;-61
2022/12/09 06:28:26;;;;;;;15.93;10.63;;;23.20;39.70;;;;;;6096120;28;83843;-61
2022/12/09 06:31:26;;;;;;;17.88;11.13;;;23.10;39.70;;;;;;6102614;28;83299;-64
2022/12/09 06:34:29;;;;;;;20.45;11.13;;;23.10;39.90;;;;;;6097177;28;83297;-61
2022/12/09 06:37:31;;;;;;;19.42;11.07;;;23.10;39.90;;;;;;6059674;28;85501;-61
2022/12/09 06:40:31;;;;;;;15.98;10.45;;;23.00;40.10;;;;;;6091190;28;84561;-60
2022/12/09 06:43:32;;;;;;;21.40;11.27;;;23.00;40.10;;;;;;6092596;28;84383;-59
2022/12/09 06:46:32;;;;;;;18.88;11.25;;;23.00;40.30;;;;;;6092169;28;85130;-60
2022/12/09 06:49:33;;;;;;;22.27;12.02;;;23.00;40.40;;;;;;6094161;28;83868;-63
2022/12/09 06:52:34;;;;;;;22.92;11.13;;;23.00;40.30;;;;;;6086682;28;84024;-63
2022/12/09 06:55:34;;;;;;;18.33;10.75;;;23.00;40.40;;;;;;6089918;28;84534;-60
2022/12/09 06:58:35;;;;;;;19.73;10.80;;;23.10;40.30;;;;;;6084692;28;84764;-63
2022/12/09 07:01:35;;;;;;;16.48;10.60;;;23.10;40.20;;;;;;6097030;28;83108;-63
2022/12/09 07:04:36;;;;;;;20.25;11.52;;;23.10;40.20;;;;;;6097652;28;82921;-60
2022/12/09 07:07:36;;;;;;;19.90;10.85;;;23.20;40.40;;;;;;6086585;28;83111;-63
2022/12/09 07:10:37;;;;;;;20.88;11.40;;;23.20;40.40;;;;;;6096708;28;84831;-67
2022/12/09 07:13:38;;;;;;;23.02;12.25;;;23.20;39.80;;;;;;6087197;28;86624;-72
2022/12/09 07:16:38;;;;;;;26.00;12.25;;;23.20;39.80;;;;;;6071532;28;85433;-69
2022/12/09 07:19:39;;;;;;;21.67;12.48;;;23.20;40.20;;;;;;6097818;28;83962;-68
2022/12/09 07:22:39;;;;;;;18.98;11.85;;;23.20;40.70;;;;;;6092651;28;84492;-70
2022/12/09 07:25:40;;;;;;;23.67;12.38;;;23.20;39.90;;;;;;6083189;28;90876;-60
2022/12/09 07:28:44;;;;;;;20.77;12.10;;;23.20;39.80;;;;;;6094790;28;83280;-59
2022/12/09 07:31:46;;;;;;;20.02;12.00;;;23.30;40.00;;;;;;6089547;28;88251;-60
2022/12/09 07:34:46;;;;;;;17.88;11.88;;;23.30;39.80;;;;;;6091825;28;83140;-59
2022/12/09 07:37:47;;;;;;;22.48;12.07;;;23.30;40.00;;;;;;6088147;28;83503;-61
2022/12/09 07:40:47;;;;;;;18.42;11.52;;;23.40;39.70;;;;;;6090667;28;83432;-60
2022/12/09 07:43:48;;;;;;;17.92;12.02;;;23.40;39.60;;;;;;6094671;28;86982;-60
2022/12/09 07:46:48;;;;;;;22.10;11.27;;;23.50;39.10;;;;;;6093055;28;85053;-60
2022/12/09 07:49:49;;;;;;;22.85;11.25;;;23.50;39.30;;;;;;6096177;28;88310;-61
2022/12/09 07:52:49;;;;;;;22.80;11.95;;;23.60;39.00;;;;;;6092856;28;88802;-60
2022/12/09 07:55:50;;;;;;;19.90;12.23;;;23.60;39.10;;;;;;6098316;28;83625;-59
2022/12/09 07:58:52;;;;;;;19.05;11.63;;;23.60;38.80;;;;;;6088243;28;87530;-60
2022/12/09 08:01:52;;;;;;;22.95;12.00;;;23.70;39.20;;;;;;6096921;28;83774;-59
2022/12/09 08:04:53;;;;;;;22.98;11.95;;;23.60;39.00;;;;;;6087232;28;82965;-65
2022/12/09 08:07:53;;;;;;;22.05;12.68;;;23.70;38.80;;;;;;6085915;28;82918;-67
2022/12/09 08:10:54;;;;;;;20.92;12.18;;;23.70;38.60;;;;;;6096054;28;83509;-68
2022/12/09 08:13:54;;;;;;;22.20;12.13;;;23.70;38.60;;;;;;6093724;28;84002;-65
2022/12/09 08:16:55;;;;;;;25.35;13.82;;;23.70;38.80;;;;;;6090764;28;83685;-63
2022/12/09 08:19:55;;;;;;;25.30;13.95;;;23.70;38.70;;;;;;6083979;28;83247;-65
2022/12/09 08:22:56;;;;;;;25.13;14.32;;;23.70;39.00;;;;;;6084150;28;86004;-61
2022/12/09 08:25:56;;;;;;;26.02;13.25;;;23.80;39.10;;;;;;6086754;28;83915;-59
2022/12/09 08:28:57;;;;;;;23.08;14.02;;;23.80;39.70;;;;;;6082065;28;85485;-60
2022/12/09 08:31:57;;;;;;;27.20;14.07;;;23.80;39.10;;;;;;6087039;28;83991;-60
2022/12/09 08:34:58;;;;;;;23.05;13.45;;;23.90;39.10;;;;;;6090162;28;83806;-60
2022/12/09 08:37:58;;;;;;;26.48;14.32;;;23.90;39.90;;;;;;6080265;28;83120;-62
2022/12/09 08:40:59;;;;;;;23.02;14.32;;;24.00;39.60;;;;;;6087793;28;83763;-66
2022/12/09 08:44:00;;;;;;;24.15;12.45;;;24.00;39.40;;;;;;6089278;28;83233;-66
2022/12/09 08:47:00;;;;;;;27.17;14.20;;;24.10;39.40;;;;;;6091586;28;83119;-60
2022/12/09 08:50:01;;;;;;;26.42;14.68;;;24.20;39.10;;;;;;6095102;28;84474;-66
2022/12/09 08:53:01;;;;;;;31.48;18.55;;;24.20;38.90;;;;;;6078522;28;83296;-72
2022/12/09 08:56:02;;;;;;;32.72;20.50;;;24.00;36.70;;;;;;6086538;28;83967;-61
2022/12/09 08:59:02;;;;;;;30.50;20.00;;;23.60;35.90;;;;;;6089611;28;83266;-70
2022/12/09 09:02:03;;;;;;;28.17;16.00;;;23.20;36.80;;;;;;6085748;28;86631;-67
2022/12/09 09:05:03;;;;;;;20.80;12.70;;;23.40;38.80;;;;;;6083364;28;88047;-69
2022/12/09 09:08:04;;;;;;;22.85;12.20;;;23.50;39.10;;;;;;6077905;28;82886;-71
2022/12/09 09:11:09;;;;;;;21.45;11.75;;;23.70;39.90;;;;;;6100525;28;83165;-70
2022/12/09 09:14:09;;;;;;;15.82;9.52;;;23.80;40.50;;;;;;6074301;28;88321;-71
2022/12/09 09:17:09;;;;;;;12.80;8.90;;;23.90;41.70;;;;;;6070767;28;84140;-62
2022/12/09 09:20:10;;;;;;;15.10;9.43;;;23.90;43.50;;;;;;6064113;28;81017;-62
2022/12/09 09:23:10;;;;;;;12.63;7.80;;;23.90;43.20;;;;;;6057592;28;87964;-65
2022/12/09 09:26:11;;;;;;;13.25;8.85;;;24.00;44.30;;;;;;6067850;28;84124;-63
2022/12/09 09:29:11;;;;;;;12.52;7.55;;;23.90;44.30;;;;;;6062571;28;81120;-64
2022/12/09 09:32:12;;;;;;;14.05;7.70;;;24.00;44.80;;;;;;6073828;28;82060;-66
2022/12/09 09:35:12;;;;;;;14.27;7.85;;;24.10;45.00;;;;;;6073184;28;82024;-65
2022/12/09 09:38:13;;;;;;;16.52;7.63;;;24.20;45.00;;;;;;6070253;28;82265;-65
2022/12/09 09:41:13;;;;;;;15.38;8.60;;;24.30;45.20;;;;;;6069400;28;84233;-63
2022/12/09 09:44:14;;;;;;;13.48;7.90;;;24.40;45.20;;;;;;6068894;28;80706;-66
2022/12/09 09:47:15;;;;;;;11.38;6.90;;;24.40;45.30;;;;;;6070811;28;87629;-66
2022/12/09 09:50:15;;;;;;;9.45;6.70;;;24.50;45.50;;;;;;6059361;28;80774;-66
2022/12/09 09:53:16;;;;;;;11.02;7.82;;;24.60;45.80;;;;;;6070220;28;81384;-64
2022/12/09 09:56:16;;;;;;;11.30;6.28;;;24.70;45.40;;;;;;6060590;28;80647;-63
2022/12/09 09:59:17;;;;;;;10.35;6.45;;;24.80;45.40;;;;;;6062039;28;81403;-65
2022/12/09 10:02:18;;;;;;;11.60;6.07;;;24.90;45.10;;;;;;6058211;28;81830;-64
2022/12/09 10:05:19;;;;;;;12.52;6.07;;;25.10;44.90;;;;;;6064266;28;81747;-64
2022/12/09 10:08:19;;;;;;;9.63;5.88;;;25.20;44.40;;;;;;6074085;28;80869;-63
2022/12/09 10:11:20;;;;;;;8.57;6.22;;;25.30;44.20;;;;;;6072853;28;81204;-67
2022/12/09 10:14:20;;;;;;;8.18;5.20;;;25.30;43.70;;;;;;6063055;28;82140;-66
2022/12/09 10:17:21;;;;;;;8.30;5.72;;;25.40;43.60;;;;;;6046830;28;86326;-67
2022/12/09 10:20:22;;;;;;;10.65;5.53;;;25.50;43.90;;;;;;6063628;28;82704;-70
2022/12/09 10:23:22;;;;;;;9.57;5.70;;;25.50;44.20;;;;;;6075110;28;83799;-67
2022/12/09 10:26:23;;;;;;;10.70;5.38;;;25.50;44.60;;;;;;6079643;28;80705;-67
2022/12/09 10:29:23;;;;;;;10.43;5.57;;;25.60;44.60;;;;;;6080819;28;84270;-66
2022/12/09 10:32:24;;;;;;;8.68;5.13;;;25.60;44.60;;;;;;6088059;28;83703;-61
2022/12/09 10:35:24;;;;;;;10.60;5.07;;;25.70;44.80;;;;;;6089477;28;81446;-59
2022/12/09 10:38:25;;;;;;;9.13;4.93;;;25.80;44.80;;;;;;6082434;28;83177;-59
2022/12/09 10:44:45;;;;;;;9.70;4.82;;;25.80;44.80;;;;;;6100792;28;80855;-68
2022/12/09 10:47:46;;;;;;;7.20;5.10;;;25.90;44.90;;;;;;6106127;28;81131;-64
2022/12/09 10:50:46;;;;;;;8.88;4.75;;;25.70;44.80;;;;;;6093534;28;82492;-65
2022/12/09 10:53:47;;;;;;;6.53;4.70;;;25.70;44.80;;;;;;6104508;28;83097;-65
2022/12/09 10:56:47;;;;;;;8.38;4.32;;;25.60;45.40;;;;;;6088955;28;81467;-63
2022/12/09 10:59:48;;;;;;;5.28;4.10;;;25.40;45.70;;;;;;6097035;28;81021;-65
2022/12/09 11:02:48;;;;;;;9.98;5.07;;;25.30;45.80;;;;;;6109847;28;80326;-65
2022/12/09 11:05:49;;;;;;;11.30;5.65;;;25.10;45.70;;;;;;6109967;28;82601;-64
2022/12/09 11:08:49;;;;;;;8.48;5.15;;;25.00;46.10;;;;;;6103041;28;80167;-64
2022/12/09 11:11:50;;;;;;;7.50;4.32;;;24.90;46.20;;;;;;6095992;28;87821;-65
2022/12/09 11:14:50;;;;;;;5.43;4.10;;;24.80;46.70;;;;;;6104222;28;82768;-64
2022/12/09 11:17:51;;;;;;;7.03;4.57;;;24.80;47.00;;;;;;6110087;28;81974;-65
2022/12/09 11:20:51;;;;;;;10.48;4.68;;;24.80;47.00;;;;;;6106462;28;81809;-66
2022/12/09 11:23:52;;;;;;;7.55;5.03;;;24.70;46.90;;;;;;6103505;28;81480;-66
2022/12/09 11:26:53;;;;;;;6.03;4.53;;;24.60;46.90;;;;;;6101024;28;80525;-65
2022/12/09 11:29:53;;;;;;;7.47;4.35;;;24.70;47.20;;;;;;6102521;28;80570;-67
2022/12/09 11:32:54;;;;;;;7.50;4.60;;;24.70;47.40;;;;;;6096985;28;83762;-61
2022/12/09 11:35:54;;;;;;;6.78;4.50;;;24.70;47.50;;;;;;6098263;28;80759;-62
2022/12/09 11:38:55;;;;;;;5.25;3.95;;;24.70;47.60;;;;;;6099221;28;80967;-63
2022/12/09 11:42:16;;;;;;;6.10;3.90;;;24.80;47.80;;;;;;6098595;28;84129;-62
2022/12/09 11:45:16;;;;;;;4.57;3.70;;;24.80;47.80;;;;;;6086558;28;80586;-61
2022/12/09 11:48:17;;;;;;;7.57;4.05;;;24.80;47.90;;;;;;6093774;28;80601;-62
2022/12/09 11:51:17;;;;;;;4.88;3.75;;;24.80;48.00;;;;;;6098481;28;82473;-62
2022/12/09 11:54:18;;;;;;;4.20;3.78;;;24.80;48.30;;;;;;6093886;28;85962;-63
2022/12/09 11:57:18;;;;;;;8.48;3.90;;;24.90;48.80;;;;;;6095302;28;80884;-63
2022/12/09 12:00:19;;;;;;;6.45;4.13;;;24.80;49.20;;;;;;6096886;28;81735;-61
2022/12/09 12:03:19;;;;;;;8.93;4.32;;;24.80;49.30;;;;;;6096084;28;80288;-61
2022/12/09 12:06:20;;;;;;;8.88;5.10;;;24.70;49.80;;;;;;6099366;28;80332;-62
2022/12/09 12:09:20;;;;;;;10.40;5.43;;;24.70;50.70;;;;;;6096747;28;89936;-62
2022/12/09 12:12:21;;;;;;;8.20;4.70;;;24.60;50.30;;;;;;6099023;28;83097;-62
2022/12/09 12:15:21;;;;;;;9.95;4.72;;;24.60;50.50;;;;;;6095351;28;83301;-62
2022/12/09 12:18:22;;;;;;;9.88;4.85;;;24.60;51.00;;;;;;6103946;28;82266;-61
2022/12/09 12:21:22;;;;;;;12.05;5.50;;;24.50;51.20;;;;;;6094508;28;84294;-61
2022/12/09 12:24:23;;;;;;;11.13;4.63;;;24.50;51.40;;;;;;6102002;28;83792;-63
2022/12/09 12:27:24;;;;;;;20.60;5.43;;;24.40;52.00;;;;;;6086495;28;80961;-62
2022/12/09 12:30:24;;;;;;;13.65;5.32;;;24.30;52.40;;;;;;6092380;28;82990;-60
2022/12/09 12:33:25;;;;;;;9.40;5.25;;;24.20;52.20;;;;;;6094942;28;81301;-63
2022/12/09 12:36:25;;;;;;;9.80;5.82;;;24.10;52.60;;;;;;6099788;28;80710;-63
2022/12/09 12:39:26;;;;;;;15.57;5.03;;;24.10;52.80;;;;;;6100351;28;81098;-58
2022/12/09 12:42:26;;;;;;;14.40;5.75;;;24.10;52.80;;;;;;6108992;28;80594;-62
2022/12/09 12:48:46;;;;;;;9.30;5.05;;;24.10;52.40;;;;;;6091714;28;83853;-64
2022/12/09 12:51:46;;;;;;;7.50;5.03;;;24.00;52.30;;;;;;6090179;28;80786;-65
2022/12/09 12:54:47;;;;;;;9.10;4.40;;;24.00;52.40;;;;;;6089661;28;80320;-69
2022/12/09 12:57:47;;;;;;;6.20;4.32;;;23.90;52.60;;;;;;6080688;28;86776;-61
2022/12/09 13:00:48;;;;;;;8.73;4.75;;;24.00;52.20;;;;;;6077311;28;80513;-61
2022/12/09 13:03:48;;;;;;;10.90;4.95;;;23.90;52.20;;;;;;6100756;28;80078;-62
2022/12/09 13:06:49;;;;;;;10.68;4.68;;;23.90;52.50;;;;;;6100632;28;80783;-59
2022/12/09 13:09:49;;;;;;;8.50;4.75;;;23.90;52.20;;;;;;6063514;28;83122;-67
2022/12/09 13:12:53;;;;;;;7.43;4.32;;;23.90;51.90;;;;;;6094973;28;80712;-61
2022/12/09 13:15:54;;;;;;;10.15;4.25;;;23.80;52.20;;;;;;6094683;28;80881;-68
2022/12/09 13:18:54;;;;;;;8.50;4.10;;;23.80;52.40;;;;;;6069206;28;80691;-63
2022/12/09 13:21:55;;;;;;;10.02;4.20;;;23.80;52.30;;;;;;6084170;28;80406;-64
2022/12/09 13:24:55;;;;;;;11.32;4.43;;;23.80;52.40;;;;;;6110071;28;80625;-68
2022/12/09 13:27:56;;;;;;;4.70;3.13;;;23.80;52.30;;;;;;6091188;28;83697;-62
2022/12/09 13:30:56;;;;;;;7.30;3.90;;;23.70;52.30;;;;;;6096947;28;81118;-64
2022/12/09 13:33:57;;;;;;;6.72;3.55;;;23.70;52.50;;;;;;6090860;28;80988;-64
2022/12/09 13:36:57;;;;;;;4.60;3.70;;;23.70;52.40;;;;;;6090722;28;83408;-63
2022/12/09 13:39:58;;;;;;;4.20;3.22;;;23.70;52.40;;;;;;6084557;28;80626;-63
2022/12/09 13:43:00;;;;;;;5.25;3.30;;;23.70;52.40;;;;;;6084301;28;83325;-63
2022/12/09 13:46:00;;;;;;;8.40;3.30;;;23.70;52.70;;;;;;6075096;28;83338;-63
2022/12/09 13:49:01;;;;;;;3.85;3.13;;;23.70;52.70;;;;;;6084912;28;80696;-64
2022/12/09 13:52:01;;;;;;;6.88;3.10;;;23.70;52.60;;;;;;6086082;28;80821;-65
2022/12/09 13:55:02;;;;;;;7.72;3.67;;;23.70;52.70;;;;;;6092419;28;80993;-62
2022/12/09 13:58:02;;;;;;;8.68;4.00;;;23.70;52.50;;;;;;6093341;28;81362;-61
2022/12/09 14:01:03;;;;;;;7.97;4.20;;;23.70;52.30;;;;;;6085813;28;87361;-61
2022/12/09 14:04:03;;;;;;;13.45;3.67;;;23.60;52.20;;;;;;6088266;28;82823;-62
2022/12/09 14:07:04;;;;;;;4.88;3.45;;;23.70;51.90;;;;;;6083950;28;81501;-64
2022/12/09 14:10:04;;;;;;;7.60;4.05;;;23.70;52.30;;;;;;6087015;28;86066;-67
2022/12/09 14:13:05;;;;;;;7.85;4.00;;;23.70;51.90;;;;;;6096422;28;81886;-67
2022/12/09 14:16:05;;;;;;;8.30;4.25;;;23.70;51.90;;;;;;6098492;28;83173;-67
2022/12/09 14:19:06;;;;;;;5.80;3.70;;;23.70;51.50;;;;;;6093644;28;80566;-66
2022/12/09 14:22:07;;;;;;;7.13;4.10;;;23.70;52.10;;;;;;6086650;28;82157;-67
2022/12/09 14:25:08;;;;;;;7.00;4.03;;;23.70;51.70;;;;;;6084181;28;80351;-69
2022/12/09 14:28:08;;;;;;;6.10;3.92;;;23.70;51.70;;;;;;6094887;28;81135;-69
2022/12/09 14:31:09;;;;;;;7.75;4.03;;;23.70;52.10;;;;;;6082615;28;80686;-66
2022/12/09 14:34:09;;;;;;;10.32;3.95;;;23.70;51.60;;;;;;6081793;28;82449;-62
2022/12/09 14:37:10;;;;;;;5.20;3.70;;;23.70;51.60;;;;;;6084809;28;86055;-61
2022/12/09 14:40:10;;;;;;;6.47;3.42;;;23.60;51.50;;;;;;6080485;28;82959;-62
2022/12/09 14:43:11;;;;;;;5.18;3.20;;;23.50;51.80;;;;;;6091814;28;82787;-59
2022/12/09 14:46:14;;;;;;;6.50;3.30;;;23.30;52.70;;;;;;6089602;28;80723;-59
2022/12/09 14:49:14;;;;;;;6.40;3.30;;;23.20;52.90;;;;;;6084299;28;81393;-60
2022/12/09 14:52:15;;;;;;;5.53;3.53;;;23.10;52.60;;;;;;6083743;28;80936;-60
2022/12/09 14:55:15;;;;;;;4.35;3.00;;;23.10;52.30;;;;;;6086243;28;85641;-59
2022/12/09 14:58:16;;;;;;;5.55;3.20;;;23.20;51.60;;;;;;6084012;28;84928;-61
2022/12/09 15:01:19;;;;;;;4.72;2.90;;;23.20;51.10;;;;;;6096205;28;81691;-58
2022/12/09 15:04:20;;;;;;;5.07;2.92;;;23.20;50.60;;;;;;6071985;28;87586;-62
2022/12/09 15:07:20;;;;;;;5.88;2.83;;;23.20;50.20;;;;;;6080432;28;80614;-63
2022/12/09 15:10:21;;;;;;;4.40;3.05;;;23.10;49.70;;;;;;6086761;28;81327;-61
2022/12/09 15:13:21;;;;;;;4.60;2.95;;;23.20;49.50;;;;;;6074110;28;80864;-63
2022/12/09 15:16:22;;;;;;;4.10;2.88;;;23.20;49.30;;;;;;6080724;28;86475;-64
2022/12/09 15:19:22;;;;;;;16.63;3.33;;;23.20;49.10;;;;;;6082023;28;85972;-62
2022/12/09 15:22:23;;;;;;;5.45;3.20;;;23.30;48.60;;;;;;6094498;28;81558;-64
2022/12/09 15:25:24;;;;;;;5.57;2.83;;;23.20;48.30;;;;;;6084093;28;85769;-68
2022/12/09 15:28:24;;;;;;;3.42;2.92;;;23.20;48.40;;;;;;6092443;28;80696;-65
2022/12/09 15:31:25;;;;;;;6.20;2.97;;;23.30;48.30;;;;;;6094119;28;80453;-69
2022/12/09 15:34:26;;;;;;;4.05;3.05;;;23.30;47.80;;;;;;6097192;28;80426;-64